createdAt,value
2019-05-01T00:00:16.540Z,0.00
2019-05-01T00:01:16.121Z,0.00
2019-05-01T00:02:16.140Z,0.00
2019-05-01T00:03:16.159Z,0.00
2019-05-01T00:04:16.178Z,0.00
2019-05-01T00:05:16.195Z,0.00
2019-05-01T00:06:16.224Z,0.00
2019-05-01T00:07:16.234Z,0.00
2019-05-01T00:08:16.254Z,0.00
2019-05-01T00:09:16.275Z,0.00
2019-05-01T00:10:16.291Z,0.00
2019-05-01T00:11:16.311Z,0.00
2019-05-01T00:12:16.328Z,0.00
2019-05-01T00:13:16.344Z,0.00
2019-05-01T00:14:16.365Z,0.00
2019-05-01T00:15:16.383Z,0.00
2019-05-01T00:16:16.454Z,0.00
2019-05-01T00:17:16.421Z,0.00
2019-05-01T00:18:16.441Z,0.00
2019-05-01T00:19:16.454Z,0.00
2019-05-01T00:20:16.474Z,0.00
2019-05-01T00:21:16.492Z,0.00
2019-05-01T00:22:16.509Z,0.00
2019-05-01T00:23:16.528Z,0.00
2019-05-01T00:24:16.552Z,0.00
2019-05-01T00:25:16.566Z,0.00
2019-05-01T00:26:16.589Z,0.00
2019-05-01T00:27:16.601Z,0.00
2019-05-01T00:28:16.618Z,0.00
2019-05-01T00:29:16.637Z,0.00
2019-05-01T00:30:28.793Z,0.00
2019-05-01T00:31:16.674Z,0.00
2019-05-01T00:32:16.689Z,0.00
2019-05-01T00:33:16.712Z,0.00
2019-05-01T00:34:16.732Z,0.00
2019-05-01T00:35:16.745Z,0.00
2019-05-01T00:36:16.761Z,0.00
2019-05-01T00:37:16.780Z,0.00
2019-05-01T00:38:16.798Z,0.00
2019-05-01T00:39:16.814Z,0.00
2019-05-01T00:40:16.834Z,0.00
2019-05-01T00:41:16.848Z,0.00
2019-05-01T00:42:16.869Z,0.00
2019-05-01T00:43:16.886Z,0.00
2019-05-01T00:44:16.906Z,0.00
2019-05-01T00:45:16.923Z,0.00
2019-05-01T00:46:16.941Z,0.00
2019-05-01T00:47:16.956Z,0.00
2019-05-01T00:48:16.976Z,0.00
2019-05-01T00:49:16.995Z,0.00
2019-05-01T00:50:17.011Z,0.00
2019-05-01T00:51:17.029Z,0.00
2019-05-01T00:52:17.051Z,0.00
2019-05-01T00:53:17.064Z,0.00
2019-05-01T00:54:17.085Z,0.00
2019-05-01T00:55:17.103Z,0.00
2019-05-01T00:56:17.116Z,0.00
2019-05-01T00:57:17.212Z,0.00
2019-05-01T00:58:17.206Z,0.00
2019-05-01T00:59:17.208Z,0.00
2019-05-01T01:00:17.270Z,0.00
2019-05-01T01:01:17.278Z,0.00
2019-05-01T01:02:17.268Z,0.00
2019-05-01T01:03:17.272Z,0.00
2019-05-01T01:04:17.281Z,0.00
2019-05-01T01:05:17.278Z,0.00
2019-05-01T01:06:17.299Z,0.00
2019-05-01T01:07:17.314Z,0.00
2019-05-01T01:08:17.337Z,0.00
2019-05-01T01:09:17.351Z,0.00
2019-05-01T01:10:17.369Z,0.00
2019-05-01T01:11:17.388Z,0.00
2019-05-01T01:12:17.405Z,0.00
2019-05-01T01:13:17.423Z,0.00
2019-05-01T01:14:17.440Z,0.00
2019-05-01T01:15:17.460Z,0.00
2019-05-01T01:16:17.546Z,0.00
2019-05-01T01:17:17.498Z,0.00
2019-05-01T01:18:17.514Z,0.00
2019-05-01T01:19:17.530Z,0.00
2019-05-01T01:20:17.549Z,0.00
2019-05-01T01:21:17.567Z,0.00
2019-05-01T01:22:17.586Z,0.00
2019-05-01T01:23:17.599Z,0.00
2019-05-01T01:24:17.620Z,0.00
2019-05-01T01:25:17.640Z,0.00
2019-05-01T01:26:17.657Z,0.00
2019-05-01T01:27:17.675Z,0.00
2019-05-01T01:28:17.691Z,0.00
2019-05-01T01:29:17.710Z,0.00
2019-05-01T01:30:17.733Z,0.00
2019-05-01T01:31:17.749Z,0.00
2019-05-01T01:32:17.774Z,0.00
2019-05-01T01:33:17.783Z,0.00
2019-05-01T01:34:17.805Z,0.00
2019-05-01T01:35:17.819Z,0.00
2019-05-01T01:36:17.840Z,0.00
2019-05-01T01:37:17.856Z,0.00
2019-05-01T01:38:17.876Z,0.00
2019-05-01T01:39:17.892Z,0.00
2019-05-01T01:40:17.910Z,0.00
2019-05-01T01:41:17.929Z,0.00
2019-05-01T01:42:17.952Z,0.00
2019-05-01T01:43:17.963Z,0.00
2019-05-01T01:44:17.988Z,0.00
2019-05-01T01:45:18.000Z,0.00
2019-05-01T01:46:18.022Z,0.00
2019-05-01T01:47:18.036Z,0.00
2019-05-01T01:48:18.060Z,0.00
2019-05-01T01:49:18.074Z,0.00
2019-05-01T01:50:18.093Z,0.00
2019-05-01T01:51:18.108Z,0.00
2019-05-01T01:52:18.130Z,0.00
2019-05-01T01:53:18.147Z,0.00
2019-05-01T01:54:18.165Z,0.00
2019-05-01T01:55:18.184Z,0.00
2019-05-01T01:56:18.202Z,0.00
2019-05-01T01:57:18.220Z,0.00
2019-05-01T01:58:18.241Z,0.00
2019-05-01T01:59:18.259Z,0.00
2019-05-01T02:00:18.277Z,0.00
2019-05-01T02:01:18.293Z,0.00
2019-05-01T02:02:18.315Z,0.00
2019-05-01T02:03:18.330Z,0.00
2019-05-01T02:04:18.347Z,0.00
2019-05-01T02:05:18.364Z,0.00
2019-05-01T02:06:18.387Z,0.00
2019-05-01T02:07:18.401Z,0.00
2019-05-01T02:08:18.423Z,0.00
2019-05-01T02:09:18.443Z,0.00
2019-05-01T02:10:18.481Z,0.00
2019-05-01T02:11:18.475Z,0.00
2019-05-01T02:12:18.494Z,0.00
2019-05-01T02:13:18.512Z,0.00
2019-05-01T02:14:18.530Z,0.00
2019-05-01T02:15:18.548Z,0.00
2019-05-01T02:16:18.567Z,0.00
2019-05-01T02:17:18.585Z,0.00
2019-05-01T02:18:18.604Z,0.00
2019-05-01T02:19:18.626Z,0.00
2019-05-01T02:20:18.640Z,0.00
2019-05-01T02:21:18.657Z,0.00
2019-05-01T02:22:18.677Z,0.00
2019-05-01T02:23:18.693Z,0.00
2019-05-01T02:24:18.712Z,0.00
2019-05-01T02:25:18.730Z,0.00
2019-05-01T02:26:18.750Z,0.00
2019-05-01T02:27:18.767Z,0.00
2019-05-01T02:28:18.786Z,0.00
2019-05-01T02:29:18.808Z,0.00
2019-05-01T02:30:18.825Z,0.00
2019-05-01T02:31:28.222Z,0.00
2019-05-01T02:32:18.860Z,0.00
2019-05-01T02:33:18.878Z,0.00
2019-05-01T02:34:18.898Z,0.00
2019-05-01T02:35:18.914Z,0.00
2019-05-01T02:36:18.934Z,0.00
2019-05-01T02:37:18.952Z,0.00
2019-05-01T02:38:18.970Z,0.00
2019-05-01T02:39:18.989Z,0.00
2019-05-01T02:40:19.034Z,0.00
2019-05-01T02:41:19.097Z,0.00
2019-05-01T02:42:19.081Z,0.00
2019-05-01T02:43:19.086Z,0.00
2019-05-01T02:44:19.146Z,0.00
2019-05-01T02:45:19.147Z,0.00
2019-05-01T02:46:19.150Z,0.00
2019-05-01T02:47:19.144Z,0.00
2019-05-01T02:48:19.152Z,0.00
2019-05-01T02:49:19.171Z,0.00
2019-05-01T02:50:19.191Z,0.00
2019-05-01T02:51:19.205Z,0.00
2019-05-01T02:52:19.226Z,0.00
2019-05-01T02:53:19.241Z,0.00
2019-05-01T02:54:19.261Z,0.00
2019-05-01T02:55:19.281Z,0.00
2019-05-01T02:56:19.300Z,0.00
2019-05-01T02:57:19.317Z,0.00
2019-05-01T02:58:19.335Z,0.00
2019-05-01T02:59:19.352Z,0.00
2019-05-01T03:00:19.373Z,0.00
2019-05-01T03:01:19.398Z,0.00
2019-05-01T03:02:19.413Z,0.00
2019-05-01T03:03:19.428Z,0.00
2019-05-01T03:04:19.447Z,0.00
2019-05-01T03:05:19.461Z,0.00
2019-05-01T03:06:19.487Z,0.00
2019-05-01T03:07:19.498Z,0.00
2019-05-01T03:08:19.526Z,0.00
2019-05-01T03:09:19.537Z,0.00
2019-05-01T03:10:19.553Z,0.00
2019-05-01T03:11:19.570Z,0.00
2019-05-01T03:12:19.596Z,0.00
2019-05-01T03:13:19.613Z,0.00
2019-05-01T03:14:19.639Z,0.00
2019-05-01T03:15:19.646Z,0.00
2019-05-01T03:16:19.663Z,0.00
2019-05-01T03:17:19.684Z,0.00
2019-05-01T03:18:19.700Z,0.00
2019-05-01T03:19:19.754Z,0.00
2019-05-01T03:20:19.736Z,0.00
2019-05-01T03:21:19.755Z,0.00
2019-05-01T03:22:19.773Z,0.00
2019-05-01T03:23:19.791Z,0.00
2019-05-01T03:24:19.817Z,0.00
2019-05-01T03:25:19.830Z,0.00
2019-05-01T03:26:19.849Z,0.00
2019-05-01T03:27:19.866Z,0.00
2019-05-01T03:28:19.880Z,0.00
2019-05-01T03:29:19.905Z,0.00
2019-05-01T03:30:19.922Z,0.00
2019-05-01T03:31:19.937Z,0.00
2019-05-01T03:32:20.162Z,0.00
2019-05-01T03:33:19.981Z,0.00
2019-05-01T03:34:20.008Z,5.63
2019-05-01T03:35:20.009Z,5.63
2019-05-01T03:36:20.030Z,5.63
2019-05-01T03:37:20.048Z,5.63
2019-05-01T03:38:20.066Z,5.63
2019-05-01T03:39:20.082Z,5.63
2019-05-01T03:40:20.106Z,5.63
2019-05-01T03:41:20.125Z,5.63
2019-05-01T03:42:20.141Z,5.63
2019-05-01T03:43:20.157Z,11.25
2019-05-01T03:44:20.174Z,11.25
2019-05-01T03:45:20.195Z,11.25
2019-05-01T03:46:20.212Z,16.88
2019-05-01T03:47:20.235Z,16.88
2019-05-01T03:48:20.251Z,16.88
2019-05-01T03:49:20.267Z,16.88
2019-05-01T03:50:20.287Z,16.88
2019-05-01T03:51:20.299Z,16.88
2019-05-01T03:52:20.320Z,11.25
2019-05-01T03:53:20.339Z,11.25
2019-05-01T03:54:20.358Z,11.25
2019-05-01T03:55:20.376Z,11.25
2019-05-01T03:56:20.392Z,11.25
2019-05-01T03:57:20.410Z,11.25
2019-05-01T03:58:20.428Z,16.88
2019-05-01T03:59:20.445Z,16.88
2019-05-01T04:00:20.467Z,22.50
2019-05-01T04:01:20.490Z,28.13
2019-05-01T04:02:33.122Z,28.13
2019-05-01T04:03:20.525Z,33.75
2019-05-01T04:04:20.536Z,39.38
2019-05-01T04:05:20.555Z,39.38
2019-05-01T04:06:20.575Z,45.00
2019-05-01T04:07:20.590Z,45.00
2019-05-01T04:08:20.608Z,45.00
2019-05-01T04:09:20.632Z,45.00
2019-05-01T04:10:20.647Z,45.00
2019-05-01T04:11:20.662Z,45.00
2019-05-01T04:12:20.680Z,45.00
2019-05-01T04:13:20.705Z,39.38
2019-05-01T04:14:20.718Z,39.38
2019-05-01T04:15:20.734Z,39.38
2019-05-01T04:16:20.751Z,33.75
2019-05-01T04:17:20.770Z,33.75
2019-05-01T04:18:20.790Z,33.75
2019-05-01T04:19:20.812Z,39.38
2019-05-01T04:20:20.824Z,39.38
2019-05-01T04:21:20.846Z,39.38
2019-05-01T04:22:20.862Z,45.00
2019-05-01T04:23:20.951Z,45.00
2019-05-01T04:24:20.973Z,50.63
2019-05-01T04:25:20.958Z,50.63
2019-05-01T04:26:20.958Z,50.63
2019-05-01T04:27:21.025Z,45.00
2019-05-01T04:28:21.018Z,45.00
2019-05-01T04:29:21.034Z,45.00
2019-05-01T04:30:21.022Z,45.00
2019-05-01T04:31:21.023Z,56.25
2019-05-01T04:32:21.042Z,61.88
2019-05-01T04:33:21.058Z,78.75
2019-05-01T04:34:21.076Z,90.00
2019-05-01T04:35:21.096Z,106.88
2019-05-01T04:36:21.117Z,112.50
2019-05-01T04:37:21.129Z,112.50
2019-05-01T04:38:21.151Z,112.50
2019-05-01T04:39:21.165Z,101.25
2019-05-01T04:40:21.189Z,95.63
2019-05-01T04:41:21.203Z,90.00
2019-05-01T04:42:21.221Z,84.38
2019-05-01T04:43:21.240Z,78.75
2019-05-01T04:44:21.260Z,78.75
2019-05-01T04:45:21.275Z,84.38
2019-05-01T04:46:21.294Z,90.00
2019-05-01T04:47:21.314Z,106.88
2019-05-01T04:48:21.332Z,118.13
2019-05-01T04:49:21.351Z,129.38
2019-05-01T04:50:21.371Z,135.00
2019-05-01T04:51:21.386Z,151.88
2019-05-01T04:52:21.403Z,174.38
2019-05-01T04:53:21.420Z,185.63
2019-05-01T04:54:21.436Z,191.25
2019-05-01T04:55:23.492Z,191.25
2019-05-01T04:56:21.476Z,191.25
2019-05-01T04:57:21.498Z,196.88
2019-05-01T04:58:21.519Z,191.25
2019-05-01T04:59:21.534Z,191.25
2019-05-01T05:00:21.547Z,196.88
2019-05-01T05:01:21.567Z,202.50
2019-05-01T05:02:21.589Z,219.38
2019-05-01T05:03:21.602Z,236.25
2019-05-01T05:04:21.620Z,247.50
2019-05-01T05:05:21.639Z,241.88
2019-05-01T05:06:21.658Z,230.63
2019-05-01T05:07:21.674Z,219.38
2019-05-01T05:08:21.695Z,213.75
2019-05-01T05:09:21.712Z,219.38
2019-05-01T05:10:21.729Z,230.63
2019-05-01T05:11:21.754Z,253.13
2019-05-01T05:12:21.770Z,275.63
2019-05-01T05:13:21.791Z,270.00
2019-05-01T05:14:21.807Z,264.38
2019-05-01T05:15:21.823Z,275.63
2019-05-01T05:16:21.844Z,270.00
2019-05-01T05:17:21.862Z,275.63
2019-05-01T05:18:21.879Z,270.00
2019-05-01T05:19:21.900Z,286.88
2019-05-01T05:20:21.913Z,309.38
2019-05-01T05:21:21.932Z,303.75
2019-05-01T05:22:21.955Z,326.25
2019-05-01T05:23:21.972Z,343.13
2019-05-01T05:24:21.997Z,326.25
2019-05-01T05:25:22.012Z,309.38
2019-05-01T05:26:22.029Z,343.13
2019-05-01T05:27:22.045Z,348.75
2019-05-01T05:28:22.123Z,360.00
2019-05-01T05:29:22.086Z,360.00
2019-05-01T05:30:22.107Z,393.75
2019-05-01T05:31:22.122Z,371.25
2019-05-01T05:32:22.140Z,343.13
2019-05-01T05:33:22.159Z,337.50
2019-05-01T05:34:22.176Z,360.00
2019-05-01T05:35:22.203Z,348.75
2019-05-01T05:36:22.213Z,303.75
2019-05-01T05:37:22.232Z,343.13
2019-05-01T05:38:22.253Z,360.00
2019-05-01T05:39:22.272Z,410.63
2019-05-01T05:40:22.289Z,382.50
2019-05-01T05:41:22.309Z,405.00
2019-05-01T05:42:22.331Z,405.00
2019-05-01T05:43:22.346Z,455.63
2019-05-01T05:44:22.364Z,495.00
2019-05-01T05:45:22.382Z,523.13
2019-05-01T05:46:22.404Z,562.50
2019-05-01T05:47:25.266Z,573.75
2019-05-01T05:48:22.440Z,630.00
2019-05-01T05:49:22.459Z,663.75
2019-05-01T05:50:22.479Z,613.13
2019-05-01T05:51:22.499Z,618.75
2019-05-01T05:52:22.517Z,562.50
2019-05-01T05:53:22.538Z,511.88
2019-05-01T05:54:22.556Z,534.38
2019-05-01T05:55:22.574Z,613.13
2019-05-01T05:56:22.594Z,663.75
2019-05-01T05:57:22.617Z,669.38
2019-05-01T05:58:22.640Z,725.63
2019-05-01T05:59:22.651Z,630.00
2019-05-01T06:00:22.676Z,562.50
2019-05-01T06:01:22.689Z,545.63
2019-05-01T06:02:22.709Z,568.13
2019-05-01T06:03:30.969Z,506.25
2019-05-01T06:04:22.831Z,461.25
2019-05-01T06:05:22.840Z,461.25
2019-05-01T06:06:22.829Z,438.75
2019-05-01T06:07:22.832Z,416.25
2019-05-01T06:08:22.890Z,388.13
2019-05-01T06:09:22.893Z,354.38
2019-05-01T06:10:23.148Z,343.13
2019-05-01T06:11:22.892Z,382.50
2019-05-01T06:12:22.906Z,393.75
2019-05-01T06:13:23.105Z,410.63
2019-05-01T06:14:26.878Z,405.00
2019-05-01T06:15:22.966Z,405.00
2019-05-01T06:16:22.989Z,393.75
2019-05-01T06:17:23.780Z,405.00
2019-05-01T06:18:23.025Z,421.88
2019-05-01T06:19:23.054Z,450.00
2019-05-01T06:20:25.973Z,450.00
2019-05-01T06:21:23.093Z,483.75
2019-05-01T06:22:23.104Z,540.00
2019-05-01T06:23:23.124Z,528.75
2019-05-01T06:24:23.142Z,528.75
2019-05-01T06:25:25.257Z,703.13
2019-05-01T06:26:23.185Z,630.00
2019-05-01T06:27:23.201Z,416.25
2019-05-01T06:28:24.812Z,331.88
2019-05-01T06:29:23.241Z,309.38
2019-05-01T06:30:23.262Z,315.00
2019-05-01T06:31:24.550Z,348.75
2019-05-01T06:32:23.300Z,405.00
2019-05-01T06:33:23.321Z,483.75
2019-05-01T06:34:23.889Z,641.25
2019-05-01T06:35:23.360Z,765.00
2019-05-01T06:36:24.065Z,798.75
2019-05-01T06:37:25.297Z,916.88
2019-05-01T06:38:23.418Z,765.00
2019-05-01T06:39:23.438Z,748.13
2019-05-01T06:40:23.674Z,753.75
2019-05-01T06:41:23.474Z,753.75
2019-05-01T06:42:23.497Z,753.75
2019-05-01T06:43:25.208Z,765.00
2019-05-01T06:44:23.535Z,1085.63
2019-05-01T06:45:23.557Z,793.13
2019-05-01T06:46:27.248Z,742.50
2019-05-01T06:47:23.599Z,787.50
2019-05-01T06:48:23.614Z,720.00
2019-05-01T06:49:24.234Z,714.38
2019-05-01T06:50:23.657Z,731.25
2019-05-01T06:51:23.675Z,680.63
2019-05-01T06:52:24.927Z,714.38
2019-05-01T06:53:23.715Z,703.13
2019-05-01T06:54:23.736Z,641.25
2019-05-01T06:55:27.285Z,562.50
2019-05-01T06:56:23.775Z,472.50
2019-05-01T06:57:23.795Z,360.00
2019-05-01T06:58:23.818Z,326.25
2019-05-01T06:59:26.256Z,298.13
2019-05-01T07:00:23.857Z,292.50
2019-05-01T07:01:24.031Z,303.75
2019-05-01T07:02:23.900Z,303.75
2019-05-01T07:03:23.917Z,298.13
2019-05-01T07:04:23.937Z,315.00
2019-05-01T07:05:23.959Z,337.50
2019-05-01T07:06:25.903Z,354.38
2019-05-01T07:07:25.793Z,343.13
2019-05-01T07:08:24.940Z,410.63
2019-05-01T07:09:28.040Z,450.00
2019-05-01T07:10:30.612Z,444.38
2019-05-01T07:11:24.089Z,461.25
2019-05-01T07:12:28.173Z,450.00
2019-05-01T07:13:24.118Z,495.00
2019-05-01T07:14:24.137Z,466.88
2019-05-01T07:15:26.771Z,466.88
2019-05-01T07:16:24.178Z,500.63
2019-05-01T07:17:24.213Z,528.75
2019-05-01T07:18:28.864Z,556.88
2019-05-01T07:19:24.234Z,697.50
2019-05-01T07:20:25.534Z,815.63
2019-05-01T07:21:27.753Z,838.13
2019-05-01T07:22:24.295Z,765.00
2019-05-01T07:23:24.314Z,765.00
2019-05-01T07:24:27.901Z,855.00
2019-05-01T07:25:24.354Z,860.63
2019-05-01T07:26:24.377Z,1023.75
2019-05-01T07:27:25.161Z,607.50
2019-05-01T07:28:24.416Z,641.25
2019-05-01T07:29:24.433Z,652.50
2019-05-01T07:30:24.455Z,635.63
2019-05-01T07:31:26.034Z,658.13
2019-05-01T07:32:24.492Z,736.88
2019-05-01T07:33:24.515Z,590.63
2019-05-01T07:34:26.227Z,506.25
2019-05-01T07:35:24.555Z,427.50
2019-05-01T07:36:24.576Z,382.50
2019-05-01T07:37:25.987Z,365.63
2019-05-01T07:38:24.619Z,337.50
2019-05-01T07:39:24.719Z,348.75
2019-05-01T07:40:29.041Z,371.25
2019-05-01T07:41:24.720Z,376.88
2019-05-01T07:42:24.775Z,382.50
2019-05-01T07:43:25.819Z,371.25
2019-05-01T07:44:24.774Z,399.38
2019-05-01T07:45:26.571Z,433.13
2019-05-01T07:46:24.779Z,483.75
2019-05-01T07:47:25.928Z,500.63
2019-05-01T07:48:24.815Z,545.63
2019-05-01T07:49:24.835Z,573.75
2019-05-01T07:50:31.656Z,585.00
2019-05-01T07:51:24.874Z,551.25
2019-05-01T07:52:24.894Z,590.63
2019-05-01T07:53:28.344Z,703.13
2019-05-01T07:54:24.933Z,748.13
2019-05-01T07:55:24.953Z,1057.50
2019-05-01T07:56:28.281Z,1023.75
2019-05-01T07:57:24.995Z,1153.13
2019-05-01T07:58:25.012Z,1046.25
2019-05-01T07:59:27.572Z,1170.00
2019-05-01T08:00:25.057Z,1074.38
2019-05-01T08:01:25.072Z,984.38
2019-05-01T08:02:25.854Z,1096.88
2019-05-01T08:03:25.112Z,978.75
2019-05-01T08:04:35.923Z,995.63
2019-05-01T08:05:25.155Z,1209.38
2019-05-01T08:06:25.176Z,1051.88
2019-05-01T08:07:27.760Z,967.50
2019-05-01T08:08:25.215Z,1226.25
2019-05-01T08:09:25.235Z,1136.25
2019-05-01T08:10:25.919Z,871.88
2019-05-01T08:11:25.280Z,1018.13
2019-05-01T08:12:25.857Z,765.00
2019-05-01T08:13:25.326Z,826.88
2019-05-01T08:14:25.346Z,624.38
2019-05-01T08:15:27.223Z,573.75
2019-05-01T08:16:25.389Z,596.25
2019-05-01T08:17:25.406Z,596.25
2019-05-01T08:18:28.013Z,793.13
2019-05-01T08:19:25.449Z,826.88
2019-05-01T08:20:25.466Z,849.38
2019-05-01T08:21:26.004Z,652.50
2019-05-01T08:22:25.509Z,725.63
2019-05-01T08:23:25.531Z,1012.50
2019-05-01T08:24:25.549Z,1113.75
2019-05-01T08:25:28.763Z,973.13
2019-05-01T08:26:25.589Z,928.13
2019-05-01T08:27:25.610Z,905.63
2019-05-01T08:28:27.678Z,1203.75
2019-05-01T08:29:25.656Z,1023.75
2019-05-01T08:30:25.675Z,877.50
2019-05-01T08:31:27.783Z,1130.63
2019-05-01T08:32:25.720Z,1029.38
2019-05-01T08:33:25.740Z,1130.63
2019-05-01T08:34:26.536Z,1113.75
2019-05-01T08:35:25.780Z,1074.38
2019-05-01T08:36:25.801Z,1035.00
2019-05-01T08:37:27.109Z,1406.25
2019-05-01T08:38:29.847Z,1535.63
2019-05-01T08:39:25.865Z,1569.38
2019-05-01T08:40:25.886Z,1119.38
2019-05-01T08:41:26.970Z,1507.50
2019-05-01T08:42:25.930Z,1670.63
2019-05-01T08:43:25.950Z,1591.88
2019-05-01T08:44:29.638Z,1760.63
2019-05-01T08:45:25.995Z,1738.13
2019-05-01T08:46:26.021Z,1687.50
2019-05-01T08:47:27.692Z,1260.00
2019-05-01T08:48:26.062Z,945.00
2019-05-01T08:49:26.082Z,787.50
2019-05-01T08:50:26.110Z,725.63
2019-05-01T08:51:30.135Z,736.88
2019-05-01T08:52:26.151Z,810.00
2019-05-01T08:53:26.173Z,883.13
2019-05-01T08:54:28.891Z,888.75
2019-05-01T08:55:26.219Z,1254.38
2019-05-01T08:56:26.240Z,1383.75
2019-05-01T08:57:29.105Z,1355.63
2019-05-01T08:58:26.284Z,1260.00
2019-05-01T08:59:26.307Z,1445.63
2019-05-01T09:00:26.329Z,1333.13
2019-05-01T09:01:26.351Z,1254.38
2019-05-01T09:02:26.375Z,1271.25
2019-05-01T09:03:26.392Z,1164.38
2019-05-01T09:04:30.607Z,1136.25
2019-05-01T09:05:30.391Z,1231.88
2019-05-01T09:06:34.577Z,1305.00
2019-05-01T09:07:26.484Z,1243.13
2019-05-01T09:08:26.952Z,1220.63
2019-05-01T09:09:26.604Z,1220.63
2019-05-01T09:10:26.602Z,1203.75
2019-05-01T09:11:26.613Z,1108.13
2019-05-01T09:12:26.655Z,1068.75
2019-05-01T09:13:26.658Z,1035.00
2019-05-01T09:14:29.729Z,1006.88
2019-05-01T09:15:26.668Z,973.13
2019-05-01T09:16:28.469Z,956.25
2019-05-01T09:17:26.709Z,1035.00
2019-05-01T09:18:26.731Z,1029.38
2019-05-01T09:19:26.756Z,1046.25
2019-05-01T09:20:26.776Z,1029.38
2019-05-01T09:21:26.799Z,1068.75
2019-05-01T09:22:26.821Z,1091.25
2019-05-01T09:23:26.843Z,1096.88
2019-05-01T09:24:27.959Z,1074.38
2019-05-01T09:25:30.990Z,1068.75
2019-05-01T09:26:26.910Z,1091.25
2019-05-01T09:27:29.589Z,1141.88
2019-05-01T09:28:26.950Z,1102.50
2019-05-01T09:29:26.975Z,1147.50
2019-05-01T09:30:27.161Z,1209.38
2019-05-01T09:31:27.020Z,1254.38
2019-05-01T09:32:27.042Z,1051.88
2019-05-01T09:33:30.876Z,1102.50
2019-05-01T09:34:27.090Z,973.13
2019-05-01T09:35:27.110Z,905.63
2019-05-01T09:36:27.131Z,1068.75
2019-05-01T09:37:27.156Z,1057.50
2019-05-01T09:38:27.177Z,1023.75
2019-05-01T09:39:27.207Z,995.63
2019-05-01T09:40:27.222Z,961.88
2019-05-01T09:41:37.585Z,973.13
2019-05-01T09:42:27.267Z,928.13
2019-05-01T09:43:31.009Z,956.25
2019-05-01T09:44:27.310Z,1006.88
2019-05-01T09:45:27.334Z,1006.88
2019-05-01T09:46:27.354Z,1001.25
2019-05-01T09:47:27.377Z,1001.25
2019-05-01T09:48:27.399Z,1012.50
2019-05-01T09:49:27.421Z,1029.38
2019-05-01T09:50:30.383Z,1051.88
2019-05-01T09:51:27.464Z,1485.00
2019-05-01T09:52:27.489Z,2261.25
2019-05-01T09:53:29.673Z,3054.38
2019-05-01T09:54:27.531Z,3380.63
2019-05-01T09:55:27.557Z,2193.75
2019-05-01T09:56:27.576Z,1946.25
2019-05-01T09:57:27.602Z,1681.88
2019-05-01T09:58:27.623Z,2469.38
2019-05-01T09:59:27.646Z,2266.88
2019-05-01T10:00:27.679Z,1203.75
2019-05-01T10:01:31.666Z,1693.13
2019-05-01T10:02:27.718Z,2131.88
2019-05-01T10:03:27.739Z,1816.88
2019-05-01T10:04:30.316Z,2666.25
2019-05-01T10:05:29.027Z,3481.88
2019-05-01T10:06:27.811Z,3577.50
2019-05-01T10:07:28.877Z,3065.63
2019-05-01T10:08:27.860Z,2182.50
2019-05-01T10:09:27.886Z,1670.63
2019-05-01T10:10:29.254Z,1951.88
2019-05-01T10:11:27.934Z,1563.75
2019-05-01T10:12:27.963Z,1586.25
2019-05-01T10:13:27.986Z,2508.75
2019-05-01T10:14:31.703Z,1951.88
2019-05-01T10:15:28.038Z,1406.25
2019-05-01T10:16:28.066Z,2154.38
2019-05-01T10:17:28.089Z,2553.75
2019-05-01T10:18:28.115Z,2086.88
2019-05-01T10:19:28.139Z,1693.13
2019-05-01T10:20:28.165Z,2716.88
2019-05-01T10:21:28.941Z,1485.00
2019-05-01T10:22:28.220Z,1980.00
2019-05-01T10:23:28.247Z,3594.38
2019-05-01T10:24:32.237Z,2953.13
2019-05-01T10:25:28.299Z,2255.63
2019-05-01T10:26:28.327Z,3285.00
2019-05-01T10:27:30.810Z,3127.50
2019-05-01T10:28:28.379Z,2008.13
2019-05-01T10:29:28.407Z,1586.25
2019-05-01T10:30:31.675Z,1693.13
2019-05-01T10:31:28.523Z,3043.13
2019-05-01T10:32:28.570Z,2379.38
2019-05-01T10:33:28.898Z,2559.38
2019-05-01T10:34:28.579Z,2317.50
2019-05-01T10:35:41.076Z,2840.63
2019-05-01T10:36:28.602Z,2880.00
2019-05-01T10:37:33.440Z,2660.63
2019-05-01T10:38:28.658Z,2463.75
2019-05-01T10:39:30.234Z,2840.63
2019-05-01T10:40:32.359Z,2767.50
2019-05-01T10:41:28.744Z,2160.00
2019-05-01T10:42:28.775Z,1749.38
2019-05-01T10:43:28.803Z,2958.75
2019-05-01T10:44:28.833Z,2283.75
2019-05-01T10:45:28.860Z,2289.38
2019-05-01T10:46:28.893Z,1845.00
2019-05-01T10:47:28.921Z,1912.50
2019-05-01T10:48:28.952Z,1850.63
2019-05-01T10:49:28.980Z,1957.50
2019-05-01T10:50:29.010Z,3088.13
2019-05-01T10:51:29.038Z,3217.50
2019-05-01T10:52:29.065Z,3268.13
2019-05-01T10:53:29.112Z,2148.75
2019-05-01T10:54:29.131Z,1462.50
2019-05-01T10:55:29.155Z,1704.38
2019-05-01T10:56:29.183Z,1130.63
2019-05-01T10:57:29.217Z,1085.63
2019-05-01T10:58:29.245Z,1203.75
2019-05-01T10:59:29.273Z,1485.00
2019-05-01T11:00:29.302Z,2812.50
2019-05-01T11:01:29.331Z,1755.00
2019-05-01T11:02:29.359Z,2986.88
2019-05-01T11:03:29.386Z,3431.25
2019-05-01T11:04:29.414Z,3825.00
2019-05-01T11:05:29.443Z,4100.63
2019-05-01T11:06:29.473Z,4477.50
2019-05-01T11:07:29.500Z,4207.50
2019-05-01T11:08:29.530Z,2075.63
2019-05-01T11:09:29.559Z,4286.25
2019-05-01T11:10:29.590Z,4173.75
2019-05-01T11:11:29.616Z,2694.38
2019-05-01T11:12:29.648Z,4263.75
2019-05-01T11:13:29.675Z,4325.63
2019-05-01T11:14:29.707Z,3825.00
2019-05-01T11:15:29.735Z,4275.00
2019-05-01T11:16:29.764Z,3853.13
2019-05-01T11:17:29.797Z,4044.38
2019-05-01T11:18:29.827Z,2424.38
2019-05-01T11:19:29.861Z,3352.50
2019-05-01T11:20:29.889Z,4021.88
2019-05-01T11:21:29.919Z,3015.00
2019-05-01T11:22:29.951Z,1755.00
2019-05-01T11:23:29.981Z,2188.13
2019-05-01T11:24:30.011Z,3493.13
2019-05-01T11:25:30.046Z,2953.13
2019-05-01T11:26:30.076Z,3082.50
2019-05-01T11:27:30.102Z,4168.13
2019-05-01T11:28:30.133Z,3082.50
2019-05-01T11:29:30.167Z,3892.50
2019-05-01T11:30:30.196Z,5006.25
2019-05-01T11:31:30.228Z,5265.00
2019-05-01T11:32:30.259Z,5146.88
2019-05-01T11:33:30.289Z,5400.00
2019-05-01T11:34:30.324Z,3352.50
2019-05-01T11:35:30.424Z,1642.50
2019-05-01T11:36:30.429Z,1558.13
2019-05-01T11:37:30.492Z,5326.88
2019-05-01T11:38:30.492Z,2840.63
2019-05-01T11:39:30.486Z,4528.13
2019-05-01T11:40:30.509Z,3318.75
2019-05-01T11:41:30.542Z,3262.50
2019-05-01T11:42:30.571Z,3526.88
2019-05-01T11:43:30.602Z,3881.25
2019-05-01T11:44:30.636Z,4905.00
2019-05-01T11:45:30.665Z,4893.75
2019-05-01T11:46:30.698Z,3375.00
2019-05-01T11:47:30.731Z,3223.13
2019-05-01T11:48:32.045Z,1530.00
2019-05-01T11:49:30.794Z,4539.38
2019-05-01T11:50:30.834Z,4927.50
2019-05-01T11:51:30.856Z,4663.13
2019-05-01T11:52:30.888Z,5079.38
2019-05-01T11:53:30.919Z,3841.88
2019-05-01T11:54:30.956Z,4398.75
2019-05-01T11:55:30.979Z,3285.00
2019-05-01T11:56:31.016Z,4691.25
2019-05-01T11:57:31.046Z,2587.50
2019-05-01T11:58:31.077Z,3465.00
2019-05-01T11:59:32.697Z,5692.50
2019-05-01T12:00:31.144Z,5467.50
2019-05-01T12:01:31.174Z,4410.00
2019-05-01T12:02:31.205Z,5934.38
2019-05-01T12:03:31.236Z,5591.25
2019-05-01T12:04:31.268Z,5208.75
2019-05-01T12:05:31.299Z,3735.00
2019-05-01T12:06:31.330Z,5512.50
2019-05-01T12:07:31.360Z,3088.13
2019-05-01T12:08:31.392Z,1552.50
2019-05-01T12:09:31.427Z,2165.63
2019-05-01T12:10:31.457Z,5523.75
2019-05-01T12:11:31.489Z,4556.25
2019-05-01T12:12:31.523Z,5203.13
2019-05-01T12:13:43.180Z,2210.63
2019-05-01T12:14:31.590Z,4556.25
2019-05-01T12:15:31.620Z,1873.13
2019-05-01T12:16:31.653Z,1788.75
2019-05-01T12:17:31.685Z,2531.25
2019-05-01T12:18:31.718Z,3864.38
2019-05-01T12:19:31.747Z,1361.25
2019-05-01T12:20:31.776Z,1074.38
2019-05-01T12:21:31.814Z,1243.13
2019-05-01T12:22:31.843Z,1496.25
2019-05-01T12:23:31.875Z,1209.38
2019-05-01T12:24:31.906Z,1316.25
2019-05-01T12:25:31.936Z,1192.50
2019-05-01T12:26:31.968Z,1108.13
2019-05-01T12:27:31.993Z,871.88
2019-05-01T12:28:32.041Z,798.75
2019-05-01T12:29:32.054Z,787.50
2019-05-01T12:30:32.086Z,804.38
2019-05-01T12:31:32.115Z,2351.25
2019-05-01T12:32:32.143Z,2143.13
2019-05-01T12:33:32.171Z,2092.50
2019-05-01T12:34:32.202Z,1603.13
2019-05-01T12:35:32.230Z,2401.88
2019-05-01T12:36:36.367Z,4561.88